createdAt,value
2022-09-27T00:00:43.117Z,11.2
2022-09-27T00:01:49.550Z,11.2
2022-09-27T00:02:55.988Z,11.2
2022-09-27T00:04:02.425Z,11.2
2022-09-27T00:05:08.872Z,11.2
2022-09-27T00:06:15.315Z,11.2
2022-09-27T00:07:21.740Z,11.2
2022-09-27T00:08:28.180Z,11.2
2022-09-27T00:09:34.637Z,11.2
2022-09-27T00:10:41.055Z,11.2
2022-09-27T00:11:47.523Z,11.2
2022-09-27T00:12:54.068Z,11.2
2022-09-27T00:14:00.625Z,11.2
2022-09-27T00:15:07.183Z,11.2
2022-09-27T00:16:13.752Z,11.2
2022-09-27T00:17:20.320Z,11.2
2022-09-27T00:18:26.865Z,11.2
2022-09-27T00:19:33.427Z,11.2
2022-09-27T00:20:40.003Z,11.2
2022-09-27T00:21:46.535Z,11.2
2022-09-27T00:22:53.095Z,11.2
2022-09-27T00:23:59.709Z,11.1
2022-09-27T00:25:06.202Z,11.2
2022-09-27T00:26:12.764Z,11.2
2022-09-27T00:27:19.555Z,11.1
2022-09-27T00:28:26.351Z,11.2
2022-09-27T00:29:33.151Z,11.2
2022-09-27T00:30:39.945Z,11.1
2022-09-27T00:31:46.764Z,11.2
2022-09-27T00:32:53.617Z,11.2
2022-09-27T00:34:00.323Z,11.2
2022-09-27T00:35:07.123Z,11.2
2022-09-27T00:36:13.916Z,11.2
2022-09-27T00:37:20.764Z,11.2
2022-09-27T00:38:27.518Z,11.2
2022-09-27T00:39:34.303Z,11.2
2022-09-27T00:40:41.098Z,11.2
2022-09-27T00:43:21.210Z,11.2
2022-09-27T00:44:59.959Z,11.1
2022-09-27T00:46:38.697Z,11.1
2022-09-27T00:48:17.438Z,11.1
2022-09-27T00:49:24.721Z,11.2
2022-09-27T00:50:32.008Z,11.1
2022-09-27T00:52:10.734Z,11.1
2022-09-27T00:53:49.468Z,11.1
2022-09-27T00:55:28.216Z,11.2
2022-09-27T00:57:06.948Z,11.2
2022-09-27T00:58:45.693Z,11.2
2022-09-27T01:00:24.445Z,11.1
2022-09-27T01:02:03.296Z,11.1
2022-09-27T01:05:52.779Z,11.1
2022-09-27T01:07:01.019Z,11.1
2022-09-27T01:10:16.729Z,11.1
2022-09-27T01:11:23.305Z,11.1
2022-09-27T01:12:29.869Z,11.1
2022-09-27T01:13:36.396Z,11
2022-09-27T01:14:42.949Z,11
2022-09-27T01:15:49.498Z,11
2022-09-27T01:16:56.059Z,11
2022-09-27T01:18:02.611Z,11
2022-09-27T01:19:09.164Z,11
2022-09-27T01:20:15.768Z,10.9
2022-09-27T01:21:22.270Z,11
2022-09-27T01:22:28.816Z,11
2022-09-27T01:23:35.374Z,11
2022-09-27T01:24:41.926Z,11
2022-09-27T01:25:48.480Z,11
2022-09-27T01:26:55.030Z,11
2022-09-27T01:28:01.591Z,10.9
2022-09-27T01:29:08.137Z,11
2022-09-27T01:30:14.694Z,10.9
2022-09-27T01:31:21.290Z,10.9
2022-09-27T01:32:27.798Z,10.9
2022-09-27T01:33:34.353Z,10.9
2022-09-27T01:34:40.917Z,10.9
2022-09-27T01:35:47.467Z,10.9
2022-09-27T01:36:54.033Z,10.8
2022-09-27T01:38:00.816Z,10.8
2022-09-27T01:39:07.691Z,10.9
2022-09-27T01:40:14.398Z,10.9
2022-09-27T01:41:21.189Z,10.9
2022-09-27T01:42:27.985Z,10.8
2022-09-27T01:43:34.813Z,10.8
2022-09-27T01:44:41.562Z,10.8
2022-09-27T01:45:48.366Z,10.8
2022-09-27T01:46:55.160Z,10.8
2022-09-27T01:48:01.940Z,10.8
2022-09-27T01:49:08.734Z,10.8
2022-09-27T01:50:15.533Z,10.7
2022-09-27T01:51:22.324Z,10.7
2022-09-27T01:54:40.443Z,10.7
2022-09-27T01:56:15.964Z,10.6
2022-09-27T01:57:23.257Z,10.6
2022-09-27T01:59:01.972Z,10.6
2022-09-27T02:00:40.701Z,10.6
2022-09-27T02:02:19.447Z,10.6
2022-09-27T02:03:58.203Z,10.6
2022-09-27T02:05:36.926Z,10.6
2022-09-27T02:07:15.663Z,10.6
2022-09-27T02:08:54.396Z,10.6
2022-09-27T02:10:33.133Z,10.6
2022-09-27T02:12:11.874Z,10.6
2022-09-27T02:13:19.142Z,10.6
2022-09-27T02:16:19.876Z,10.6
2022-09-27T02:19:35.801Z,10.6
2022-09-27T02:20:42.590Z,10.6
2022-09-27T02:21:49.378Z,10.6
2022-09-27T02:22:56.194Z,10.6
2022-09-27T02:24:02.981Z,10.6
2022-09-27T02:25:09.754Z,10.6
2022-09-27T02:26:16.560Z,10.6
2022-09-27T02:27:23.387Z,10.6
2022-09-27T02:28:30.147Z,10.6
2022-09-27T02:29:36.944Z,10.6
2022-09-27T02:30:43.723Z,10.5
2022-09-27T02:31:50.516Z,10.5
2022-09-27T02:32:57.321Z,10.5
2022-09-27T02:34:04.105Z,10.5
2022-09-27T02:35:10.909Z,10.5
2022-09-27T02:36:17.691Z,10.5
2022-09-27T02:37:24.483Z,10.5
2022-09-27T02:38:31.277Z,10.5
2022-09-27T02:39:38.067Z,10.5
2022-09-27T02:40:44.871Z,10.5
2022-09-27T02:41:51.655Z,10.5
2022-09-27T02:42:58.447Z,10.5
2022-09-27T02:44:05.246Z,10.5
2022-09-27T02:45:12.048Z,10.5
2022-09-27T02:46:18.826Z,10.5
2022-09-27T02:47:52.080Z,10.5
2022-09-27T02:48:59.355Z,10.5
2022-09-27T02:50:38.080Z,10.5
2022-09-27T02:52:16.825Z,10.5
2022-09-27T02:53:55.558Z,10.5
2022-09-27T02:55:34.294Z,10.5
2022-09-27T02:57:13.033Z,10.5
2022-09-27T02:58:51.767Z,10.5
2022-09-27T03:00:30.503Z,10.5
2022-09-27T03:02:09.235Z,10.5
2022-09-27T03:03:47.981Z,10.5
2022-09-27T03:04:55.244Z,10.4
2022-09-27T03:06:02.515Z,10.4
2022-09-27T03:10:10.548Z,10.4
2022-09-27T03:13:26.214Z,10.4
2022-09-27T03:14:32.760Z,10.4
2022-09-27T03:15:39.339Z,10.4
2022-09-27T03:16:45.928Z,10.4
2022-09-27T03:17:52.441Z,10.3
2022-09-27T03:18:59.049Z,10.3
2022-09-27T03:20:05.544Z,10.2
2022-09-27T03:21:12.097Z,10.2
2022-09-27T03:22:18.711Z,10.1
2022-09-27T03:23:25.225Z,10.1
2022-09-27T03:24:31.769Z,10
2022-09-27T03:25:38.310Z,10
2022-09-27T03:26:44.873Z,10
2022-09-27T03:27:51.403Z,9.9
2022-09-27T03:28:57.948Z,9.9
2022-09-27T03:30:04.473Z,9.9
2022-09-27T03:31:11.014Z,9.9
2022-09-27T03:32:17.549Z,9.9
2022-09-27T03:33:24.089Z,9.9
2022-09-27T03:34:30.628Z,9.9
2022-09-27T03:35:37.174Z,9.9
2022-09-27T03:36:43.707Z,9.9
2022-09-27T03:37:50.282Z,9.9
2022-09-27T03:38:56.755Z,10
2022-09-27T03:40:03.331Z,10
2022-09-27T03:41:10.083Z,10.1
2022-09-27T03:42:16.907Z,10.1
2022-09-27T03:44:30.501Z,10.1
2022-09-27T03:45:37.263Z,10.1
2022-09-27T03:46:44.063Z,10.1
2022-09-27T03:47:50.875Z,10.1
2022-09-27T03:48:57.665Z,10.1
2022-09-27T03:50:04.453Z,10
2022-09-27T03:51:11.320Z,10.1
2022-09-27T03:52:18.015Z,10
2022-09-27T03:53:24.808Z,10
2022-09-27T03:54:31.599Z,10.1
2022-09-27T03:57:49.689Z,10.1
2022-09-27T03:59:28.435Z,10.1
2022-09-27T04:01:07.158Z,10
2022-09-27T04:02:14.428Z,9.9
2022-09-27T04:03:20.408Z,9.9
2022-09-27T04:04:26.836Z,9.9
2022-09-27T04:05:33.298Z,9.9
2022-09-27T04:06:39.705Z,9.9
2022-09-27T04:07:46.091Z,9.8
2022-09-27T04:08:52.514Z,9.8
2022-09-27T04:09:58.934Z,9.8
2022-09-27T04:11:05.350Z,9.8
2022-09-27T04:12:11.766Z,9.7
2022-09-27T04:13:18.224Z,9.7
2022-09-27T04:14:24.617Z,9.6
2022-09-27T04:15:31.048Z,9.6
2022-09-27T04:16:37.474Z,9.6
2022-09-27T04:17:43.880Z,9.6
2022-09-27T04:18:50.299Z,9.6
2022-09-27T04:19:56.727Z,9.5
2022-09-27T04:21:03.131Z,9.5
2022-09-27T04:22:09.682Z,9.5
2022-09-27T04:23:15.979Z,9.5
2022-09-27T04:24:22.415Z,9.5
2022-09-27T04:25:28.816Z,9.4
2022-09-27T04:26:35.236Z,9.4
2022-09-27T04:27:41.661Z,9.5
2022-09-27T04:28:48.133Z,9.5
2022-09-27T04:29:54.492Z,9.5
2022-09-27T04:31:01.048Z,9.5
2022-09-27T04:32:07.588Z,9.5
2022-09-27T04:33:14.153Z,9.5
2022-09-27T04:34:20.664Z,9.4
2022-09-27T04:35:27.211Z,9.4
2022-09-27T04:36:33.741Z,9.4
2022-09-27T04:37:40.281Z,9.3
2022-09-27T04:38:46.825Z,9.3
2022-09-27T04:39:53.374Z,9.3
2022-09-27T04:40:59.901Z,9.3
2022-09-27T04:42:06.439Z,9.3
2022-09-27T04:43:12.977Z,9.3
2022-09-27T04:44:19.523Z,9.3
2022-09-27T04:45:52.346Z,9.3
2022-09-27T04:46:59.116Z,9.2
2022-09-27T04:48:05.922Z,9.2
2022-09-27T04:49:12.720Z,9.2
2022-09-27T04:50:19.442Z,9.2
2022-09-27T04:51:26.231Z,9.2
2022-09-27T04:52:33.000Z,9.2
2022-09-27T04:53:39.783Z,9.2
2022-09-27T04:54:46.577Z,9.2
2022-09-27T04:55:53.362Z,9.2
2022-09-27T04:57:00.102Z,9.2
2022-09-27T04:58:06.872Z,9.2
2022-09-27T04:59:13.655Z,9.1
2022-09-27T05:02:31.874Z,9
2022-09-27T05:04:09.914Z,9
2022-09-27T05:05:16.465Z,9
2022-09-27T05:06:22.909Z,9
2022-09-27T05:07:29.449Z,9
2022-09-27T05:08:35.994Z,9
2022-09-27T05:09:42.529Z,9
2022-09-27T05:10:49.062Z,9
2022-09-27T05:11:55.574Z,9
2022-09-27T05:13:02.096Z,9
2022-09-27T05:14:08.659Z,9
2022-09-27T05:15:15.173Z,9
2022-09-27T05:16:21.693Z,9.1
2022-09-27T05:17:28.277Z,9.1
2022-09-27T05:18:34.805Z,9.1
2022-09-27T05:19:41.310Z,9.2
2022-09-27T05:20:47.873Z,9.2
2022-09-27T05:21:54.399Z,9.2
2022-09-27T05:23:00.960Z,9.3
2022-09-27T05:24:07.473Z,9.3
2022-09-27T05:25:14.021Z,9.3
2022-09-27T05:26:20.554Z,9.4
2022-09-27T05:27:27.180Z,9.4
2022-09-27T05:28:33.653Z,9.4
2022-09-27T05:29:40.170Z,9.4
2022-09-27T05:30:46.716Z,9.4
2022-09-27T05:31:53.491Z,9.5
2022-09-27T05:33:00.323Z,9.5
2022-09-27T05:34:07.092Z,9.5
2022-09-27T05:35:13.819Z,9.5
2022-09-27T05:36:20.597Z,9.5
2022-09-27T05:37:27.414Z,9.5
2022-09-27T05:38:34.137Z,9.4
2022-09-27T05:39:40.912Z,9.4
2022-09-27T05:40:47.695Z,9.5
2022-09-27T05:41:54.469Z,9.5
2022-09-27T05:43:01.238Z,9.5
2022-09-27T05:44:08.014Z,9.6
2022-09-27T05:45:14.797Z,9.6
2022-09-27T05:48:33.029Z,9.6
2022-09-27T05:50:11.219Z,9.6
2022-09-27T05:51:17.992Z,9.6
2022-09-27T05:52:24.782Z,9.6
2022-09-27T05:53:31.587Z,9.6
2022-09-27T05:54:38.315Z,9.6
2022-09-27T05:55:45.148Z,9.6
2022-09-27T05:56:51.875Z,9.5
2022-09-27T05:57:58.646Z,9.5
2022-09-27T05:59:05.425Z,9.5
2022-09-27T06:00:12.202Z,9.5
2022-09-27T06:01:18.977Z,9.5
2022-09-27T06:02:25.817Z,9.5
2022-09-27T06:03:32.535Z,9.5
2022-09-27T06:04:39.361Z,9.6
2022-09-27T06:05:46.079Z,9.6
2022-09-27T06:06:52.858Z,9.7
2022-09-27T06:07:59.634Z,9.8
2022-09-27T06:09:06.405Z,9.8
2022-09-27T06:10:13.200Z,9.9
2022-09-27T06:11:19.991Z,10
2022-09-27T06:12:26.722Z,10
2022-09-27T06:13:33.535Z,10.1
2022-09-27T06:14:40.303Z,10.1
2022-09-27T06:15:47.118Z,10.2
2022-09-27T06:16:53.884Z,10.2
2022-09-27T06:19:06.093Z,10.3
2022-09-27T06:20:13.397Z,10.3
2022-09-27T06:21:20.624Z,10.3
2022-09-27T06:22:59.362Z,10.3
2022-09-27T06:24:38.115Z,10.4
2022-09-27T06:26:16.900Z,10.5
2022-09-27T06:27:55.585Z,10.6
2022-09-27T06:29:34.321Z,10.5
2022-09-27T06:31:13.061Z,10.6
2022-09-27T06:32:51.812Z,10.7
2022-09-27T06:34:30.532Z,10.7
2022-09-27T06:36:09.280Z,10.8
2022-09-27T06:37:16.633Z,10.8
2022-09-27T06:40:17.274Z,10.8
2022-09-27T06:43:33.208Z,10.8
2022-09-27T06:44:39.989Z,10.9
2022-09-27T06:45:46.776Z,10.9
2022-09-27T06:46:53.582Z,10.8
2022-09-27T06:48:00.361Z,10.8
2022-09-27T06:49:07.244Z,10.8
2022-09-27T06:50:13.944Z,10.9
2022-09-27T06:51:20.738Z,10.9
2022-09-27T06:52:27.595Z,10.9
2022-09-27T06:53:34.322Z,10.8
2022-09-27T06:54:41.158Z,10.8
2022-09-27T06:55:47.910Z,10.7
2022-09-27T06:56:54.708Z,10.7
2022-09-27T06:58:01.514Z,10.7
2022-09-27T06:59:08.301Z,10.7
2022-09-27T07:00:15.106Z,10.8
2022-09-27T07:01:21.893Z,10.8
2022-09-27T07:02:28.680Z,10.8
2022-09-27T07:03:35.509Z,10.8
2022-09-27T07:04:42.313Z,10.8
2022-09-27T07:05:49.068Z,10.7
2022-09-27T07:06:55.883Z,10.7
2022-09-27T07:08:02.647Z,10.7
2022-09-27T07:09:09.552Z,10.6
2022-09-27T07:10:16.354Z,10.5
2022-09-27T07:11:49.488Z,10.5
2022-09-27T07:12:56.754Z,10.5
2022-09-27T07:14:35.528Z,10.4
2022-09-27T07:16:14.237Z,10.4
2022-09-27T07:17:53.077Z,10.5
2022-09-27T07:19:31.779Z,10.6
2022-09-27T07:21:10.446Z,10.8
2022-09-27T07:22:49.180Z,10.9
2022-09-27T07:24:27.945Z,11
2022-09-27T07:26:06.797Z,11.2
2022-09-27T07:27:45.412Z,11.3
2022-09-27T07:28:52.682Z,11.3
2022-09-27T07:29:59.958Z,11.3
2022-09-27T07:34:07.972Z,11.3
2022-09-27T07:37:23.675Z,11.5
2022-09-27T07:38:30.234Z,11.7
2022-09-27T07:39:36.901Z,11.8
2022-09-27T07:40:43.441Z,11.7
2022-09-27T07:41:49.935Z,11.7
2022-09-27T07:42:56.478Z,11.7
2022-09-27T07:44:03.037Z,11.8
2022-09-27T07:45:09.599Z,11.8
2022-09-27T07:46:16.158Z,11.5
2022-09-27T07:47:22.717Z,11.5
2022-09-27T07:48:29.278Z,11.5
2022-09-27T07:49:35.842Z,11.3
2022-09-27T07:50:42.395Z,11.2
2022-09-27T07:51:48.958Z,11.2
2022-09-27T07:52:55.522Z,11.2
2022-09-27T07:54:02.072Z,11.4
2022-09-27T07:55:08.634Z,11.5
2022-09-27T07:56:15.273Z,11.7
2022-09-27T07:57:21.871Z,12.4
2022-09-27T07:58:28.375Z,12.9
2022-09-27T07:59:34.859Z,13.2
2022-09-27T08:00:41.426Z,13.4
2022-09-27T08:01:47.980Z,13.2
2022-09-27T08:02:54.538Z,13.1
2022-09-27T08:04:01.120Z,13
2022-09-27T08:05:07.892Z,12.8
2022-09-27T08:06:14.689Z,13.2
2022-09-27T08:07:21.480Z,13.1
2022-09-27T08:08:28.326Z,12.6
2022-09-27T08:09:35.112Z,12.4
2022-09-27T08:10:41.875Z,12.6
2022-09-27T08:11:48.659Z,13.1
2022-09-27T08:12:55.457Z,13.5
2022-09-27T08:14:02.248Z,13.9
2022-09-27T08:15:09.046Z,14.1
2022-09-27T08:16:15.839Z,14
2022-09-27T08:17:22.652Z,14.1
2022-09-27T08:18:29.433Z,14.3
2022-09-27T08:21:47.554Z,14.3
2022-09-27T08:23:26.292Z,14.1
2022-09-27T08:25:05.022Z,14.1
2022-09-27T08:26:12.289Z,13.9
2022-09-27T08:27:19.576Z,14.2
2022-09-27T08:28:58.297Z,14.6
2022-09-27T08:30:37.037Z,14.9
2022-09-27T08:32:15.774Z,15.1
2022-09-27T08:33:54.514Z,15.5
2022-09-27T08:35:33.251Z,15.5
2022-09-27T08:37:12.019Z,15.6
2022-09-27T08:38:50.840Z,15.4
2022-09-27T08:40:29.472Z,14.6
2022-09-27T08:42:40.283Z,14.4
2022-09-27T08:44:35.624Z,13.9
2022-09-27T08:45:42.060Z,13.7
2022-09-27T08:46:48.511Z,13.9
2022-09-27T08:47:54.939Z,13.8
2022-09-27T08:49:01.437Z,13.7
2022-09-27T08:50:07.907Z,13.8
2022-09-27T08:51:14.285Z,13.8
2022-09-27T08:52:20.687Z,14.1
2022-09-27T08:53:27.133Z,14.3
2022-09-27T08:54:33.559Z,14.2
2022-09-27T08:55:39.996Z,14.2
2022-09-27T08:56:46.465Z,14
2022-09-27T08:57:52.980Z,13.8
2022-09-27T08:58:59.395Z,13.8
2022-09-27T09:00:05.749Z,13.9
2022-09-27T09:01:12.190Z,13.7
2022-09-27T09:02:18.632Z,13.6
2022-09-27T09:03:25.067Z,13.5
2022-09-27T09:04:31.503Z,13.6
2022-09-27T09:05:37.942Z,13.4
2022-09-27T09:06:44.375Z,13.1
2022-09-27T09:07:50.820Z,13
2022-09-27T09:08:57.257Z,12.8
2022-09-27T09:10:03.702Z,12.7
2022-09-27T09:11:10.174Z,12.5
2022-09-27T09:12:16.721Z,12.6
2022-09-27T09:13:23.276Z,12.6
2022-09-27T09:14:29.827Z,12.7
2022-09-27T09:15:36.384Z,12.5
2022-09-27T09:16:42.946Z,12.3
2022-09-27T09:17:49.497Z,12.1
2022-09-27T09:18:56.051Z,12
2022-09-27T09:20:02.631Z,11.9
2022-09-27T09:21:09.181Z,12
2022-09-27T09:22:15.718Z,12
2022-09-27T09:23:22.400Z,12
2022-09-27T09:24:28.841Z,12
2022-09-27T09:25:35.389Z,12
2022-09-27T09:26:43.229Z,12
2022-09-27T09:27:49.984Z,12.1
2022-09-27T09:28:56.789Z,12.4
2022-09-27T09:30:03.582Z,12.6
2022-09-27T09:31:10.381Z,12.7
2022-09-27T09:32:17.173Z,12.8
2022-09-27T09:33:23.968Z,13
2022-09-27T09:34:30.757Z,13.1
2022-09-27T09:35:37.560Z,12.8
2022-09-27T09:36:44.353Z,12.7
2022-09-27T09:37:51.153Z,12.7
2022-09-27T09:38:57.957Z,12.7
2022-09-27T09:40:04.741Z,12.8
2022-09-27T09:43:22.852Z,12.8
2022-09-27T09:44:30.144Z,13
2022-09-27T09:45:37.388Z,13
2022-09-27T09:47:16.122Z,13.1
2022-09-27T09:48:54.872Z,13.3
2022-09-27T09:50:33.606Z,13.4
2022-09-27T09:52:12.356Z,13.9
2022-09-27T09:53:51.095Z,14.1
2022-09-27T09:55:29.832Z,14.2
2022-09-27T09:57:08.577Z,14.1
2022-09-27T09:58:47.312Z,13.6
2022-09-27T10:00:26.055Z,13.6
2022-09-27T10:01:33.324Z,13.6
2022-09-27T10:04:34.069Z,13.7
2022-09-27T10:07:49.780Z,13.5
2022-09-27T10:08:56.316Z,13.4
2022-09-27T10:10:02.878Z,13.4
2022-09-27T10:11:09.433Z,13.2
2022-09-27T10:12:15.990Z,13.1
2022-09-27T10:13:22.552Z,13.1
2022-09-27T10:14:29.106Z,13.1
2022-09-27T10:15:35.671Z,13.2
2022-09-27T10:16:42.231Z,13.2
2022-09-27T10:17:48.792Z,13.4
2022-09-27T10:18:55.338Z,13.5
2022-09-27T10:20:01.908Z,13.7
2022-09-27T10:21:08.461Z,13.8
2022-09-27T10:22:15.027Z,14.1
2022-09-27T10:23:21.582Z,14.3
2022-09-27T10:24:28.136Z,14.2
2022-09-27T10:25:34.690Z,14.5
2022-09-27T10:26:41.246Z,14.7
2022-09-27T10:27:47.800Z,15
2022-09-27T10:28:54.354Z,15.1
2022-09-27T10:30:00.911Z,15
2022-09-27T10:31:07.546Z,15
2022-09-27T10:32:14.017Z,15
2022-09-27T10:33:20.563Z,14.9
2022-09-27T10:34:27.127Z,15
2022-09-27T10:35:33.938Z,15.1
2022-09-27T10:36:40.703Z,15
2022-09-27T10:37:47.510Z,14.8
2022-09-27T10:38:54.299Z,14.5
2022-09-27T10:40:01.082Z,14
2022-09-27T10:41:07.876Z,13.7
2022-09-27T10:42:14.678Z,13.4
2022-09-27T10:43:21.465Z,13.2
2022-09-27T10:44:28.251Z,12.9
2022-09-27T10:45:35.045Z,12.6
2022-09-27T10:46:41.842Z,12.3
2022-09-27T10:47:48.634Z,12.2
2022-09-27T10:48:55.429Z,12.3
2022-09-27T10:50:02.728Z,12.5
2022-09-27T10:51:41.470Z,12.7
2022-09-27T10:53:20.209Z,13.1
2022-09-27T10:54:58.949Z,13.4
2022-09-27T10:56:37.702Z,13.7
2022-09-27T10:58:16.423Z,13.7
2022-09-27T10:59:55.167Z,13.6
2022-09-27T11:01:33.907Z,13.4
2022-09-27T11:03:12.644Z,13.4
2022-09-27T11:04:51.405Z,13.2
2022-09-27T11:06:30.281Z,13.3
2022-09-27T11:08:08.864Z,13.6
2022-09-27T11:09:47.604Z,13.8
2022-09-27T11:13:55.615Z,13.8
2022-09-27T11:15:02.096Z,13.2
2022-09-27T11:17:11.202Z,12.9
2022-09-27T11:18:17.615Z,12.7
2022-09-27T11:19:24.063Z,12.7
2022-09-27T11:20:30.490Z,12.5
2022-09-27T11:21:36.919Z,12.5
2022-09-27T11:22:43.367Z,12.3
2022-09-27T11:23:49.803Z,12.2
2022-09-27T11:24:56.236Z,12.1
2022-09-27T11:26:02.678Z,12.2
2022-09-27T11:27:09.109Z,12.3
2022-09-27T11:28:15.555Z,12.2
2022-09-27T11:29:21.996Z,12.2
2022-09-27T11:30:28.431Z,12.2
2022-09-27T11:31:34.867Z,12.3
2022-09-27T11:32:41.306Z,12.3
2022-09-27T11:33:47.756Z,12.3
2022-09-27T11:34:54.179Z,12.4
2022-09-27T11:36:00.609Z,12.6
2022-09-27T11:37:07.051Z,12.7
2022-09-27T11:38:13.487Z,12.9
2022-09-27T11:39:19.931Z,13.3
2022-09-27T11:40:26.367Z,13.9
2022-09-27T11:41:32.820Z,14.1
2022-09-27T11:42:39.247Z,14.2
2022-09-27T11:43:45.816Z,14.4
2022-09-27T11:44:52.373Z,14.5
2022-09-27T11:45:58.928Z,14.4
2022-09-27T11:47:05.489Z,14.4
2022-09-27T11:48:12.107Z,14.2
2022-09-27T11:49:18.599Z,13.9
2022-09-27T11:50:25.153Z,14
2022-09-27T11:51:31.708Z,13.9
2022-09-27T11:52:38.263Z,13.8
2022-09-27T11:53:44.812Z,13.9
2022-09-27T11:54:51.374Z,14.1
2022-09-27T11:55:57.981Z,14.1
2022-09-27T11:57:04.488Z,14.7
2022-09-27T11:58:37.757Z,15.2
2022-09-27T11:59:44.551Z,16.4
2022-09-27T12:00:51.344Z,18
2022-09-27T12:01:58.138Z,18.2
2022-09-27T12:03:04.937Z,17.8
2022-09-27T12:04:11.720Z,17.7
2022-09-27T12:05:18.515Z,17.8
2022-09-27T12:06:25.317Z,18
2022-09-27T12:07:32.108Z,17.8
2022-09-27T12:08:38.901Z,18.2
2022-09-27T12:09:45.689Z,17.8
2022-09-27T12:10:52.486Z,17.1
2022-09-27T12:11:59.269Z,16.5
2022-09-27T12:15:17.383Z,16.3
2022-09-27T12:16:56.114Z,15.6
2022-09-27T12:18:34.841Z,15
2022-09-27T12:19:42.115Z,14.8
2022-09-27T12:20:49.384Z,15.4
2022-09-27T12:22:28.129Z,15.4
2022-09-27T12:24:06.939Z,15.4
2022-09-27T12:25:45.774Z,15.1
2022-09-27T12:27:24.427Z,14.6
2022-09-27T12:29:03.212Z,14.3
2022-09-27T12:30:41.951Z,13.9
2022-09-27T12:32:20.723Z,13.6
2022-09-27T12:33:59.469Z,13.2
2022-09-27T12:36:10.330Z,13
2022-09-27T12:38:05.572Z,12.9
2022-09-27T12:39:12.086Z,12.9
2022-09-27T12:40:18.316Z,12.9
2022-09-27T12:41:24.882Z,12.8
2022-09-27T12:42:31.282Z,12.8
2022-09-27T12:43:37.774Z,12.8
2022-09-27T12:44:44.190Z,12.8
2022-09-27T12:45:50.529Z,12.8
2022-09-27T12:46:56.936Z,12.8
2022-09-27T12:48:03.538Z,13.1
2022-09-27T12:49:09.864Z,14.2
2022-09-27T12:50:16.237Z,14.8
2022-09-27T12:51:22.680Z,15.3
2022-09-27T12:52:29.117Z,16.3
2022-09-27T12:53:35.558Z,16.7
2022-09-27T12:54:41.980Z,18
2022-09-27T12:55:48.577Z,19.4
2022-09-27T12:56:54.851Z,19.2
2022-09-27T12:58:01.309Z,19
2022-09-27T12:59:07.714Z,18.7
2022-09-27T13:00:14.288Z,17.7
2022-09-27T13:01:20.744Z,16.7
2022-09-27T13:02:27.022Z,16
2022-09-27T13:03:33.559Z,15.9
2022-09-27T13:04:40.036Z,16.9
2022-09-27T13:05:46.621Z,18.1
2022-09-27T13:06:53.141Z,18.9
2022-09-27T13:07:59.730Z,20
2022-09-27T13:09:06.279Z,20.8
2022-09-27T13:10:12.685Z,21
2022-09-27T13:11:19.365Z,20.8
2022-09-27T13:12:25.933Z,19.7
2022-09-27T13:13:32.479Z,18.7
2022-09-27T13:14:39.025Z,17.7
2022-09-27T13:15:45.621Z,17
2022-09-27T13:16:52.157Z,16.1
2022-09-27T13:17:58.702Z,15.4
2022-09-27T13:19:05.233Z,14.9
2022-09-27T13:20:12.908Z,14.8
2022-09-27T13:21:19.845Z,14.5
2022-09-27T13:22:26.652Z,14.1
2022-09-27T13:23:33.421Z,13.7
2022-09-27T13:24:40.221Z,13.7
2022-09-27T13:25:47.042Z,13.7
2022-09-27T13:26:53.819Z,14.1
2022-09-27T13:28:00.603Z,14.5
2022-09-27T13:29:07.419Z,14.7
2022-09-27T13:30:14.154Z,14.7
2022-09-27T13:31:21.010Z,14.7
2022-09-27T13:32:27.792Z,14.7
2022-09-27T13:33:34.603Z,14.6
2022-09-27T13:36:52.672Z,14.5
2022-09-27T13:37:59.979Z,14.3
2022-09-27T13:39:07.251Z,14.1
2022-09-27T13:40:45.971Z,13.9
2022-09-27T13:42:24.687Z,13.8
2022-09-27T13:44:03.425Z,13.6
2022-09-27T13:45:42.163Z,13.4
2022-09-27T13:47:20.900Z,13.5
2022-09-27T13:48:59.658Z,13.8
2022-09-27T13:50:38.408Z,14
2022-09-27T13:52:17.125Z,14.2
2022-09-27T13:53:55.875Z,14.3
2022-09-27T13:55:02.999Z,14.2
2022-09-27T13:58:03.734Z,14.1
2022-09-27T14:01:19.417Z,14.1
2022-09-27T14:02:26.112Z,13.8
2022-09-27T14:03:32.682Z,13.8
2022-09-27T14:04:39.197Z,13.7
2022-09-27T14:05:45.780Z,13.5
2022-09-27T14:06:52.333Z,13.5
2022-09-27T14:07:58.912Z,13.3
2022-09-27T14:09:05.303Z,13.2
2022-09-27T14:10:11.986Z,13.2
2022-09-27T14:11:18.562Z,13.2
2022-09-27T14:12:25.122Z,13.2
2022-09-27T14:13:31.651Z,13.1
2022-09-27T14:14:38.254Z,13
2022-09-27T14:15:44.720Z,12.9
2022-09-27T14:16:51.352Z,12.8
2022-09-27T14:17:57.908Z,12.9
2022-09-27T14:19:04.442Z,12.9
2022-09-27T14:20:10.879Z,12.9
2022-09-27T14:21:17.574Z,12.9
2022-09-27T14:22:24.140Z,12.9
2022-09-27T14:23:30.690Z,13.1
2022-09-27T14:24:37.267Z,13.1
2022-09-27T14:25:43.798Z,13.2
2022-09-27T14:26:50.314Z,13.1
2022-09-27T14:27:56.925Z,13.1
2022-09-27T14:29:03.718Z,13.1
2022-09-27T14:30:10.351Z,13.2
2022-09-27T14:31:17.349Z,13.2
2022-09-27T14:32:24.085Z,13.3
2022-09-27T14:33:30.912Z,13.3
2022-09-27T14:34:37.674Z,13.5
2022-09-27T14:35:44.468Z,13.5
2022-09-27T14:36:51.253Z,13.6
2022-09-27T14:37:58.032Z,13.5
2022-09-27T14:39:04.708Z,13.4
2022-09-27T14:40:11.506Z,13.4
2022-09-27T14:41:18.953Z,13.3
2022-09-27T14:42:25.260Z,13.2
2022-09-27T14:43:32.528Z,13.1
2022-09-27T14:45:11.136Z,12.9
2022-09-27T14:46:49.970Z,12.7
2022-09-27T14:48:28.755Z,12.7
2022-09-27T14:50:07.485Z,12.6
2022-09-27T14:51:46.263Z,12.7
2022-09-27T14:53:25.005Z,12.7
2022-09-27T14:55:03.701Z,12.8
2022-09-27T14:56:42.476Z,12.8
2022-09-27T14:58:21.193Z,12.9
2022-09-27T15:01:38.533Z,12.9
2022-09-27T15:03:17.270Z,12.9
2022-09-27T15:07:25.426Z,12.8
2022-09-27T15:08:33.709Z,13
2022-09-27T15:10:41.034Z,13
2022-09-27T15:11:47.443Z,12.9
2022-09-27T15:12:53.829Z,12.9
2022-09-27T15:14:00.167Z,13
2022-09-27T15:15:06.718Z,12.9
2022-09-27T15:16:13.139Z,12.9
2022-09-27T15:17:19.578Z,13
2022-09-27T15:18:26.084Z,12.8
2022-09-27T15:19:32.470Z,12.9
2022-09-27T15:20:38.937Z,13
2022-09-27T15:21:45.319Z,13.1
2022-09-27T15:22:51.809Z,13.1
2022-09-27T15:23:58.220Z,13.2
2022-09-27T15:25:04.636Z,13.1
2022-09-27T15:26:11.072Z,13.1
2022-09-27T15:27:17.522Z,13.1
2022-09-27T15:28:23.988Z,13
2022-09-27T15:29:30.377Z,13
2022-09-27T15:30:36.768Z,13
2022-09-27T15:31:43.267Z,12.9
2022-09-27T15:32:49.729Z,12.8
2022-09-27T15:33:56.155Z,12.7
2022-09-27T15:35:02.578Z,12.7
2022-09-27T15:36:09.058Z,12.7
2022-09-27T15:37:15.465Z,12.7
2022-09-27T15:38:22.060Z,12.8
2022-09-27T15:39:28.615Z,12.8
2022-09-27T15:40:35.155Z,12.7
2022-09-27T15:41:41.833Z,12.7
2022-09-27T15:42:48.278Z,12.7
2022-09-27T15:43:54.833Z,12.7
2022-09-27T15:45:01.395Z,12.7
2022-09-27T15:46:07.948Z,12.7
2022-09-27T15:47:14.511Z,12.7
2022-09-27T15:48:21.073Z,12.7
2022-09-27T15:49:27.478Z,12.7
2022-09-27T15:50:34.169Z,12.7
2022-09-27T15:51:40.605Z,12.6
2022-09-27T15:52:48.508Z,12.6
2022-09-27T15:53:55.357Z,12.6
2022-09-27T15:55:02.138Z,12.5
2022-09-27T15:56:08.914Z,12.6
2022-09-27T15:57:15.713Z,12.4
2022-09-27T15:58:22.513Z,12.4
2022-09-27T15:59:29.299Z,12.4
2022-09-27T16:00:36.056Z,12.5
2022-09-27T16:01:42.855Z,12.5
2022-09-27T16:02:49.680Z,12.5
2022-09-27T16:03:56.480Z,12.4
2022-09-27T16:05:03.262Z,12.4
2022-09-27T16:06:10.000Z,12.4
2022-09-27T16:09:28.168Z,12.4
2022-09-27T16:10:35.433Z,12.3
2022-09-27T16:11:42.726Z,12.3
2022-09-27T16:13:21.455Z,12.3
2022-09-27T16:15:00.205Z,12.3
2022-09-27T16:16:38.965Z,12.2
2022-09-27T16:18:17.663Z,12.3
2022-09-27T16:19:56.413Z,12.2
2022-09-27T16:21:35.064Z,12.1
2022-09-27T16:23:13.880Z,12.1
2022-09-27T16:24:52.627Z,12.1
2022-09-27T16:26:31.362Z,12.1
2022-09-27T16:27:38.636Z,12.1
2022-09-27T16:30:39.453Z,12
2022-09-27T16:33:54.984Z,12
2022-09-27T16:35:01.394Z,11.9
2022-09-27T16:36:07.844Z,11.9
2022-09-27T16:37:14.139Z,11.9
2022-09-27T16:38:20.573Z,11.9
2022-09-27T16:39:27.139Z,11.9
2022-09-27T16:40:33.458Z,11.9
2022-09-27T16:41:40.032Z,11.8
2022-09-27T16:42:46.384Z,11.8
2022-09-27T16:43:52.809Z,11.8
2022-09-27T16:44:59.208Z,11.8
2022-09-27T16:46:05.742Z,11.7
2022-09-27T16:47:12.138Z,11.7
2022-09-27T16:48:18.533Z,11.7
2022-09-27T16:49:24.972Z,11.6
2022-09-27T16:50:31.415Z,11.6
2022-09-27T16:51:37.837Z,11.6
2022-09-27T16:52:44.309Z,11.5
2022-09-27T16:53:50.719Z,11.5
2022-09-27T16:54:57.149Z,11.5
2022-09-27T16:56:03.659Z,11.5
2022-09-27T16:57:10.037Z,11.5
2022-09-27T16:58:16.610Z,11.4
2022-09-27T16:59:22.905Z,11.4
2022-09-27T17:00:29.340Z,11.4
2022-09-27T17:01:35.921Z,11.4
2022-09-27T17:02:42.570Z,11.3
2022-09-27T17:03:49.062Z,11.3
2022-09-27T17:04:55.642Z,11.3
2022-09-27T17:06:02.143Z,11.3
2022-09-27T17:07:08.708Z,11.3
2022-09-27T17:08:15.260Z,11.3
2022-09-27T17:09:22.021Z,11.2
2022-09-27T17:10:28.373Z,11.2
2022-09-27T17:11:34.998Z,11.2
2022-09-27T17:12:41.619Z,11.2
2022-09-27T17:13:48.052Z,11.1
2022-09-27T17:14:54.668Z,11.1
2022-09-27T17:16:01.405Z,11.1